sensor_id;sensor_type;location;lat;lon;timestamp;pressure;altitude;pressure_sealevel;temperature;humidity
40946;BME280;55635;50.264;11.918;2023-04-30T00:02:22;95944.06;;;12.20;80.73
40946;BME280;55635;50.264;11.918;2023-04-30T00:05:03;95945.00;;;12.12;80.82
40946;BME280;55635;50.264;11.918;2023-04-30T00:07:44;95950.50;;;12.11;81.07
40946;BME280;55635;50.264;11.918;2023-04-30T00:10:25;95954.44;;;12.15;80.76
40946;BME280;55635;50.264;11.918;2023-04-30T00:13:06;95956.38;;;12.06;81.42
40946;BME280;55635;50.264;11.918;2023-04-30T00:15:48;95942.16;;;11.99;81.46
40946;BME280;55635;50.264;11.918;2023-04-30T00:18:30;95957.66;;;12.10;80.76
40946;BME280;55635;50.264;11.918;2023-04-30T00:21:11;95963.06;;;12.17;81.44
40946;BME280;55635;50.264;11.918;2023-04-30T00:23:52;95960.28;;;12.25;80.90
40946;BME280;55635;50.264;11.918;2023-04-30T00:26:33;95963.19;;;12.30;80.34
40946;BME280;55635;50.264;11.918;2023-04-30T00:29:14;95964.41;;;12.27;80.82
40946;BME280;55635;50.264;11.918;2023-04-30T00:31:55;95966.13;;;12.35;80.36
40946;BME280;55635;50.264;11.918;2023-04-30T00:34:36;95962.00;;;12.32;80.16
40946;BME280;55635;50.264;11.918;2023-04-30T00:37:17;95962.66;;;12.34;79.59
40946;BME280;55635;50.264;11.918;2023-04-30T00:39:58;95960.34;;;12.31;80.09
40946;BME280;55635;50.264;11.918;2023-04-30T00:42:39;95962.72;;;12.26;80.39
40946;BME280;55635;50.264;11.918;2023-04-30T00:45:45;95966.25;;;12.12;80.96
40946;BME280;55635;50.264;11.918;2023-04-30T00:48:28;95963.22;;;12.15;81.16
40946;BME280;55635;50.264;11.918;2023-04-30T00:51:09;95964.22;;;12.14;81.12
40946;BME280;55635;50.264;11.918;2023-04-30T00:53:51;95963.72;;;12.04;81.15
40946;BME280;55635;50.264;11.918;2023-04-30T00:56:32;95970.56;;;12.13;80.87
40946;BME280;55635;50.264;11.918;2023-04-30T00:59:13;95971.13;;;12.09;80.93
40946;BME280;55635;50.264;11.918;2023-04-30T01:01:54;95979.47;;;12.06;81.35
40946;BME280;55635;50.264;11.918;2023-04-30T01:04:36;95977.25;;;12.09;81.08
40946;BME280;55635;50.264;11.918;2023-04-30T01:07:18;95981.56;;;12.10;81.00
40946;BME280;55635;50.264;11.918;2023-04-30T01:09:59;95985.31;;;12.16;80.72
40946;BME280;55635;50.264;11.918;2023-04-30T01:13:05;95981.72;;;12.23;81.20
40946;BME280;55635;50.264;11.918;2023-04-30T01:16:24;95994.94;;;12.17;81.04
40946;BME280;55635;50.264;11.918;2023-04-30T01:19:25;95996.06;;;12.08;81.59
40946;BME280;55635;50.264;11.918;2023-04-30T01:22:41;96001.38;;;12.08;81.41
40946;BME280;55635;50.264;11.918;2023-04-30T01:26:14;95994.97;;;11.87;82.47
40946;BME280;55635;50.264;11.918;2023-04-30T01:28:59;96010.34;;;12.07;81.23
40946;BME280;55635;50.264;11.918;2023-04-30T01:31:45;96003.22;;;12.07;80.80
40946;BME280;55635;50.264;11.918;2023-04-30T01:34:26;96011.19;;;12.07;80.85
40946;BME280;55635;50.264;11.918;2023-04-30T01:37:34;96008.78;;;12.12;81.01
40946;BME280;55635;50.264;11.918;2023-04-30T01:46:37;96004.03;;;12.08;81.08
40946;BME280;55635;50.264;11.918;2023-04-30T01:49:50;96011.66;;;12.11;80.97
40946;BME280;55635;50.264;11.918;2023-04-30T01:52:49;96007.44;;;12.02;80.90
40946;BME280;55635;50.264;11.918;2023-04-30T01:55:45;96016.56;;;11.99;80.72
40946;BME280;55635;50.264;11.918;2023-04-30T01:58:29;96023.28;;;11.95;80.81
40946;BME280;55635;50.264;11.918;2023-04-30T02:01:31;96030.78;;;12.06;80.13
40946;BME280;55635;50.264;11.918;2023-04-30T02:04:12;96026.78;;;11.95;79.47
40946;BME280;55635;50.264;11.918;2023-04-30T02:06:53;96031.53;;;11.85;80.10
40946;BME280;55635;50.264;11.918;2023-04-30T02:09:34;96042.84;;;11.65;79.83
40946;BME280;55635;50.264;11.918;2023-04-30T02:12:16;96040.81;;;11.67;78.87
40946;BME280;55635;50.264;11.918;2023-04-30T02:14:57;96035.75;;;11.57;79.58
40946;BME280;55635;50.264;11.918;2023-04-30T02:17:38;96046.03;;;11.60;78.47
40946;BME280;55635;50.264;11.918;2023-04-30T02:20:20;96045.78;;;11.32;78.41
40946;BME280;55635;50.264;11.918;2023-04-30T02:23:01;96053.25;;;11.52;77.55
40946;BME280;55635;50.264;11.918;2023-04-30T02:25:42;96050.81;;;11.27;77.83
40946;BME280;55635;50.264;11.918;2023-04-30T02:28:23;96054.97;;;11.44;77.08
40946;BME280;55635;50.264;11.918;2023-04-30T02:31:04;96057.75;;;11.28;77.21
40946;BME280;55635;50.264;11.918;2023-04-30T02:33:45;96059.53;;;11.36;76.58
40946;BME280;55635;50.264;11.918;2023-04-30T02:36:26;96063.88;;;11.29;77.05
40946;BME280;55635;50.264;11.918;2023-04-30T02:39:09;96063.78;;;11.22;76.02
40946;BME280;55635;50.264;11.918;2023-04-30T02:41:50;96065.19;;;11.10;76.26
40946;BME280;55635;50.264;11.918;2023-04-30T02:44:31;96068.16;;;11.15;75.93
40946;BME280;55635;50.264;11.918;2023-04-30T02:47:12;96075.78;;;11.18;75.83
40946;BME280;55635;50.264;11.918;2023-04-30T02:49:53;96079.25;;;10.96;76.72
40946;BME280;55635;50.264;11.918;2023-04-30T02:52:34;96073.44;;;10.92;76.38
40946;BME280;55635;50.264;11.918;2023-04-30T02:55:15;96076.25;;;10.68;76.52
40946;BME280;55635;50.264;11.918;2023-04-30T02:58:22;96082.38;;;10.69;76.41
40946;BME280;55635;50.264;11.918;2023-04-30T03:01:04;96085.69;;;10.71;76.31
40946;BME280;55635;50.264;11.918;2023-04-30T03:03:45;96084.91;;;10.62;77.04
40946;BME280;55635;50.264;11.918;2023-04-30T03:06:26;96077.13;;;10.30;77.83
40946;BME280;55635;50.264;11.918;2023-04-30T03:09:07;96084.38;;;10.36;77.78
40946;BME280;55635;50.264;11.918;2023-04-30T03:11:48;96087.53;;;10.40;77.71
40946;BME280;55635;50.264;11.918;2023-04-30T03:14:33;96087.09;;;10.20;78.56
40946;BME280;55635;50.264;11.918;2023-04-30T03:17:14;96092.88;;;10.23;78.56
40946;BME280;55635;50.264;11.918;2023-04-30T03:19:56;96094.38;;;10.18;78.59
40946;BME280;55635;50.264;11.918;2023-04-30T03:22:37;96093.91;;;10.14;78.61
40946;BME280;55635;50.264;11.918;2023-04-30T03:25:18;96096.84;;;10.11;79.12
40946;BME280;55635;50.264;11.918;2023-04-30T03:27:58;96095.53;;;10.15;79.19
40946;BME280;55635;50.264;11.918;2023-04-30T03:30:40;96102.47;;;10.24;79.08
40946;BME280;55635;50.264;11.918;2023-04-30T03:33:22;96102.94;;;10.28;79.00
40946;BME280;55635;50.264;11.918;2023-04-30T03:36:03;96102.44;;;10.32;79.00
40946;BME280;55635;50.264;11.918;2023-04-30T03:38:44;96104.59;;;10.29;78.75
40946;BME280;55635;50.264;11.918;2023-04-30T03:41:25;96102.78;;;10.21;79.76
40946;BME280;55635;50.264;11.918;2023-04-30T03:44:06;96101.78;;;10.30;79.35
40946;BME280;55635;50.264;11.918;2023-04-30T03:46:54;96106.44;;;10.28;79.10
40946;BME280;55635;50.264;11.918;2023-04-30T03:49:37;96105.63;;;10.20;79.81
40946;BME280;55635;50.264;11.918;2023-04-30T03:52:18;96112.38;;;10.30;79.49
40946;BME280;55635;50.264;11.918;2023-04-30T03:54:59;96114.41;;;10.20;79.97
40946;BME280;55635;50.264;11.918;2023-04-30T03:57:40;96119.03;;;10.26;80.30
40946;BME280;55635;50.264;11.918;2023-04-30T04:00:22;96115.59;;;10.18;79.60
40946;BME280;55635;50.264;11.918;2023-04-30T04:03:06;96113.84;;;10.41;79.22
40946;BME280;55635;50.264;11.918;2023-04-30T04:05:48;96124.09;;;10.44;78.84
40946;BME280;55635;50.264;11.918;2023-04-30T04:08:29;96111.50;;;10.46;79.26
40946;BME280;55635;50.264;11.918;2023-04-30T04:11:11;96116.69;;;10.31;79.21
40946;BME280;55635;50.264;11.918;2023-04-30T04:13:52;96117.97;;;10.44;78.75
40946;BME280;55635;50.264;11.918;2023-04-30T04:16:33;96104.56;;;10.37;79.18
40946;BME280;55635;50.264;11.918;2023-04-30T04:19:14;96110.09;;;10.11;80.36
40946;BME280;55635;50.264;11.918;2023-04-30T04:21:55;96114.09;;;10.07;80.01
40946;BME280;55635;50.264;11.918;2023-04-30T04:24:40;96120.53;;;10.21;79.87
40946;BME280;55635;50.264;11.918;2023-04-30T04:27:22;96122.72;;;9.93;80.86
40946;BME280;55635;50.264;11.918;2023-04-30T04:30:05;96129.16;;;10.07;80.33
40946;BME280;55635;50.264;11.918;2023-04-30T04:32:46;96134.28;;;10.00;80.65
40946;BME280;55635;50.264;11.918;2023-04-30T04:35:28;96135.94;;;10.01;79.86
40946;BME280;55635;50.264;11.918;2023-04-30T04:38:09;96135.94;;;10.01;80.67
40946;BME280;55635;50.264;11.918;2023-04-30T04:40:54;96131.31;;;10.03;80.08
40946;BME280;55635;50.264;11.918;2023-04-30T04:43:37;96137.94;;;9.99;80.50
40946;BME280;55635;50.264;11.918;2023-04-30T04:46:18;96143.75;;;9.87;81.11
40946;BME280;55635;50.264;11.918;2023-04-30T04:49:00;96148.38;;;10.09;80.60
40946;BME280;55635;50.264;11.918;2023-04-30T04:51:41;96142.91;;;10.02;80.35
40946;BME280;55635;50.264;11.918;2023-04-30T04:54:22;96146.72;;;10.16;80.50
40946;BME280;55635;50.264;11.918;2023-04-30T04:57:05;96152.97;;;10.31;80.05
40946;BME280;55635;50.264;11.918;2023-04-30T04:59:46;96151.34;;;10.14;80.53
40946;BME280;55635;50.264;11.918;2023-04-30T05:02:27;96155.13;;;10.27;80.22
40946;BME280;55635;50.264;11.918;2023-04-30T05:05:16;96150.66;;;10.36;79.52
40946;BME280;55635;50.264;11.918;2023-04-30T05:07:57;96152.75;;;10.41;79.08
40946;BME280;55635;50.264;11.918;2023-04-30T05:10:40;96153.47;;;10.18;79.78
40946;BME280;55635;50.264;11.918;2023-04-30T05:13:21;96142.09;;;10.18;78.45
40946;BME280;55635;50.264;11.918;2023-04-30T05:16:03;96154.78;;;10.30;77.44
40946;BME280;55635;50.264;11.918;2023-04-30T05:18:44;96156.78;;;10.36;76.96
40946;BME280;55635;50.264;11.918;2023-04-30T05:21:25;96158.41;;;10.37;77.40
40946;BME280;55635;50.264;11.918;2023-04-30T05:24:11;96154.13;;;10.36;77.35
40946;BME280;55635;50.264;11.918;2023-04-30T05:26:52;96151.19;;;10.15;77.61
40946;BME280;55635;50.264;11.918;2023-04-30T05:29:58;96157.75;;;10.27;77.06
40946;BME280;55635;50.264;11.918;2023-04-30T05:32:43;96150.94;;;10.41;77.65
40946;BME280;55635;50.264;11.918;2023-04-30T05:35:30;96158.19;;;10.55;77.17
40946;BME280;55635;50.264;11.918;2023-04-30T05:38:11;96161.50;;;10.57;77.40
40946;BME280;55635;50.264;11.918;2023-04-30T05:40:52;96153.16;;;10.68;76.80
40946;BME280;55635;50.264;11.918;2023-04-30T05:43:34;96150.09;;;10.87;77.15
40946;BME280;55635;50.264;11.918;2023-04-30T05:46:15;96151.84;;;10.95;76.62
40946;BME280;55635;50.264;11.918;2023-04-30T05:48:56;96151.69;;;10.66;76.34
40946;BME280;55635;50.264;11.918;2023-04-30T05:51:37;96158.66;;;10.67;75.79
40946;BME280;55635;50.264;11.918;2023-04-30T05:54:18;96158.06;;;10.79;76.00
40946;BME280;55635;50.264;11.918;2023-04-30T05:56:59;96155.31;;;10.65;75.70
40946;BME280;55635;50.264;11.918;2023-04-30T05:59:41;96157.63;;;10.68;75.14
40946;BME280;55635;50.264;11.918;2023-04-30T06:02:22;96148.28;;;10.88;75.64
40946;BME280;55635;50.264;11.918;2023-04-30T06:05:04;96158.25;;;10.78;75.67
40946;BME280;55635;50.264;11.918;2023-04-30T06:07:47;96162.56;;;10.79;75.42
40946;BME280;55635;50.264;11.918;2023-04-30T06:10:28;96149.88;;;10.97;74.38
40946;BME280;55635;50.264;11.918;2023-04-30T06:13:09;96160.09;;;11.08;74.99
40946;BME280;55635;50.264;11.918;2023-04-30T06:15:51;96156.13;;;11.04;74.45
40946;BME280;55635;50.264;11.918;2023-04-30T06:18:32;96166.38;;;11.07;73.88
40946;BME280;55635;50.264;11.918;2023-04-30T06:21:14;96164.19;;;11.19;74.01
40946;BME280;55635;50.264;11.918;2023-04-30T06:24:19;96164.56;;;11.08;73.60
40946;BME280;55635;50.264;11.918;2023-04-30T06:27:00;96168.69;;;11.10;74.11
40946;BME280;55635;50.264;11.918;2023-04-30T06:29:42;96164.75;;;11.06;74.10
40946;BME280;55635;50.264;11.918;2023-04-30T06:32:23;96174.25;;;11.23;74.12
40946;BME280;55635;50.264;11.918;2023-04-30T06:35:05;96162.47;;;11.26;73.68
40946;BME280;55635;50.264;11.918;2023-04-30T06:37:46;96159.22;;;11.38;72.63
40946;BME280;55635;50.264;11.918;2023-04-30T06:40:27;96157.53;;;11.45;72.67
40946;BME280;55635;50.264;11.918;2023-04-30T06:43:08;96162.34;;;11.42;71.23
40946;BME280;55635;50.264;11.918;2023-04-30T06:45:49;96157.59;;;11.37;72.23
40946;BME280;55635;50.264;11.918;2023-04-30T06:48:30;96149.59;;;11.15;71.97
40946;BME280;55635;50.264;11.918;2023-04-30T06:51:11;96159.69;;;11.19;71.80
40946;BME280;55635;50.264;11.918;2023-04-30T06:53:52;96162.19;;;11.43;71.46
40946;BME280;55635;50.264;11.918;2023-04-30T06:56:33;96158.34;;;11.46;70.43
40946;BME280;55635;50.264;11.918;2023-04-30T06:59:14;96159.41;;;12.20;72.73
40946;BME280;55635;50.264;11.918;2023-04-30T07:01:57;96163.38;;;12.53;69.77
40946;BME280;55635;50.264;11.918;2023-04-30T07:04:40;96164.06;;;12.91;67.96
40946;BME280;55635;50.264;11.918;2023-04-30T07:07:21;96165.81;;;12.84;66.97
40946;BME280;55635;50.264;11.918;2023-04-30T07:10:05;96162.75;;;13.01;65.92
40946;BME280;55635;50.264;11.918;2023-04-30T07:12:46;96152.94;;;13.02;65.67
40946;BME280;55635;50.264;11.918;2023-04-30T07:15:28;96164.97;;;13.13;66.59
40946;BME280;55635;50.264;11.918;2023-04-30T07:18:09;96160.66;;;12.97;66.19
40946;BME280;55635;50.264;11.918;2023-04-30T07:20:52;96159.28;;;13.01;65.67
40946;BME280;55635;50.264;11.918;2023-04-30T07:23:36;96156.31;;;14.16;64.21
40946;BME280;55635;50.264;11.918;2023-04-30T07:26:17;96158.97;;;15.13;62.17
40946;BME280;55635;50.264;11.918;2023-04-30T07:28:58;96153.22;;;15.90;58.55
40946;BME280;55635;50.264;11.918;2023-04-30T07:31:41;96156.69;;;16.62;56.00
40946;BME280;55635;50.264;11.918;2023-04-30T07:34:24;96153.56;;;17.29;55.19
40946;BME280;55635;50.264;11.918;2023-04-30T07:37:11;96148.03;;;17.62;52.07
40946;BME280;55635;50.264;11.918;2023-04-30T07:39:53;96151.19;;;18.65;51.64
40946;BME280;55635;50.264;11.918;2023-04-30T07:42:35;96149.97;;;18.79;48.62
40946;BME280;55635;50.264;11.918;2023-04-30T07:45:16;96151.56;;;19.05;49.67
40946;BME280;55635;50.264;11.918;2023-04-30T07:47:57;96145.69;;;19.62;47.05
40946;BME280;55635;50.264;11.918;2023-04-30T07:50:39;96145.78;;;20.38;47.58
40946;BME280;55635;50.264;11.918;2023-04-30T07:53:20;96141.59;;;20.13;43.84
40946;BME280;55635;50.264;11.918;2023-04-30T07:56:01;96143.44;;;20.53;43.67
40946;BME280;55635;50.264;11.918;2023-04-30T07:58:42;96150.56;;;20.83;42.80
40946;BME280;55635;50.264;11.918;2023-04-30T08:01:23;96149.97;;;21.15;39.98
40946;BME280;55635;50.264;11.918;2023-04-30T08:04:04;96149.28;;;21.08;42.71
40946;BME280;55635;50.264;11.918;2023-04-30T08:06:45;96145.72;;;21.20;41.12
40946;BME280;55635;50.264;11.918;2023-04-30T08:09:26;96148.22;;;20.86;39.67
40946;BME280;55635;50.264;11.918;2023-04-30T08:12:09;96151.72;;;21.22;40.46
40946;BME280;55635;50.264;11.918;2023-04-30T08:15:00;96147.34;;;21.32;40.07
40946;BME280;55635;50.264;11.918;2023-04-30T08:18:06;96133.13;;;21.37;40.26
40946;BME280;55635;50.264;11.918;2023-04-30T08:20:47;96147.72;;;21.24;39.09
40946;BME280;55635;50.264;11.918;2023-04-30T08:23:28;96149.84;;;21.79;39.10
40946;BME280;55635;50.264;11.918;2023-04-30T08:26:09;96149.72;;;22.13;39.39
40946;BME280;55635;50.264;11.918;2023-04-30T08:28:50;96142.66;;;22.12;37.99
40946;BME280;55635;50.264;11.918;2023-04-30T08:31:31;96152.47;;;21.74;38.67
40946;BME280;55635;50.264;11.918;2023-04-30T08:34:15;96152.56;;;22.23;38.13
40946;BME280;55635;50.264;11.918;2023-04-30T08:36:56;96147.66;;;22.54;37.76
40946;BME280;55635;50.264;11.918;2023-04-30T08:39:37;96153.59;;;21.89;38.68
40946;BME280;55635;50.264;11.918;2023-04-30T08:42:20;96139.88;;;22.07;38.86
40946;BME280;55635;50.264;11.918;2023-04-30T08:45:06;96144.75;;;21.65;38.08
40946;BME280;55635;50.264;11.918;2023-04-30T08:47:49;96139.13;;;21.67;38.70
40946;BME280;55635;50.264;11.918;2023-04-30T08:50:33;96146.34;;;21.78;38.86
40946;BME280;55635;50.264;11.918;2023-04-30T08:53:15;96143.88;;;21.48;38.35
40946;BME280;55635;50.264;11.918;2023-04-30T08:55:57;96142.06;;;21.94;39.26
40946;BME280;55635;50.264;11.918;2023-04-30T08:58:39;96142.41;;;21.29;37.77
40946;BME280;55635;50.264;11.918;2023-04-30T09:01:20;96141.97;;;21.21;39.35
40946;BME280;55635;50.264;11.918;2023-04-30T09:04:05;96137.75;;;21.13;38.75
40946;BME280;55635;50.264;11.918;2023-04-30T09:06:46;96140.56;;;21.18;39.75
40946;BME280;55635;50.264;11.918;2023-04-30T09:09:28;96133.53;;;21.57;39.01
40946;BME280;55635;50.264;11.918;2023-04-30T09:15:05;96135.63;;;21.27;40.36
40946;BME280;55635;50.264;11.918;2023-04-30T09:17:48;96142.59;;;20.64;40.73
40946;BME280;55635;50.264;11.918;2023-04-30T09:20:30;96146.69;;;20.90;40.18
40946;BME280;55635;50.264;11.918;2023-04-30T09:23:11;96144.81;;;21.14;40.74
40946;BME280;55635;50.264;11.918;2023-04-30T09:25:55;96131.19;;;21.21;40.16
40946;BME280;55635;50.264;11.918;2023-04-30T09:28:54;96139.06;;;21.10;40.89
40946;BME280;55635;50.264;11.918;2023-04-30T09:31:38;96136.53;;;21.32;39.83
40946;BME280;55635;50.264;11.918;2023-04-30T09:34:33;96143.84;;;21.60;40.17
40946;BME280;55635;50.264;11.918;2023-04-30T09:37:15;96141.63;;;21.85;39.64
40946;BME280;55635;50.264;11.918;2023-04-30T09:39:56;96134.88;;;21.43;40.17
40946;BME280;55635;50.264;11.918;2023-04-30T09:42:37;96127.97;;;21.35;39.59
40946;BME280;55635;50.264;11.918;2023-04-30T09:45:22;96132.22;;;21.59;38.86
40946;BME280;55635;50.264;11.918;2023-04-30T09:48:03;96121.91;;;21.16;38.64
40946;BME280;55635;50.264;11.918;2023-04-30T09:50:44;96126.63;;;21.21;40.89
40946;BME280;55635;50.264;11.918;2023-04-30T09:53:27;96127.28;;;21.56;40.69
40946;BME280;55635;50.264;11.918;2023-04-30T09:56:11;96127.97;;;21.35;37.00
40946;BME280;55635;50.264;11.918;2023-04-30T09:58:55;96124.81;;;20.63;39.43
40946;BME280;55635;50.264;11.918;2023-04-30T10:01:36;96118.94;;;20.55;40.32
40946;BME280;55635;50.264;11.918;2023-04-30T10:04:20;96117.59;;;21.44;39.47
40946;BME280;55635;50.264;11.918;2023-04-30T10:07:21;96119.25;;;21.45;38.77
40946;BME280;55635;50.264;11.918;2023-04-30T10:10:09;96128.59;;;21.54;37.82
40946;BME280;55635;50.264;11.918;2023-04-30T10:12:53;96118.31;;;21.96;36.86
40946;BME280;55635;50.264;11.918;2023-04-30T10:15:42;96115.50;;;22.19;37.61
40946;BME280;55635;50.264;11.918;2023-04-30T10:18:38;96116.63;;;21.78;36.07
40946;BME280;55635;50.264;11.918;2023-04-30T10:21:24;96120.97;;;22.24;37.51
40946;BME280;55635;50.264;11.918;2023-04-30T10:24:12;96112.78;;;22.02;36.42
40946;BME280;55635;50.264;11.918;2023-04-30T10:26:54;96119.66;;;22.43;37.04
40946;BME280;55635;50.264;11.918;2023-04-30T10:29:37;96112.84;;;21.91;36.21
40946;BME280;55635;50.264;11.918;2023-04-30T10:32:19;96112.59;;;22.59;37.39
40946;BME280;55635;50.264;11.918;2023-04-30T10:35:25;96106.88;;;22.05;36.95
40946;BME280;55635;50.264;11.918;2023-04-30T10:38:20;96102.84;;;21.35;36.78
40946;BME280;55635;50.264;11.918;2023-04-30T10:41:04;96100.50;;;22.28;36.92
40946;BME280;55635;50.264;11.918;2023-04-30T10:43:46;96108.41;;;22.51;35.39
40946;BME280;55635;50.264;11.918;2023-04-30T10:46:29;96094.81;;;22.63;33.84
40946;BME280;55635;50.264;11.918;2023-04-30T10:49:11;96099.50;;;22.51;33.78
40946;BME280;55635;50.264;11.918;2023-04-30T10:51:54;96100.38;;;22.90;35.89
40946;BME280;55635;50.264;11.918;2023-04-30T10:54:39;96088.78;;;22.56;33.34
40946;BME280;55635;50.264;11.918;2023-04-30T10:57:41;96079.44;;;22.30;33.40
40946;BME280;55635;50.264;11.918;2023-04-30T11:00:29;96090.59;;;22.34;32.42
40946;BME280;55635;50.264;11.918;2023-04-30T11:03:10;96091.56;;;22.99;33.93
40946;BME280;55635;50.264;11.918;2023-04-30T11:05:51;96087.16;;;22.21;32.32
40946;BME280;55635;50.264;11.918;2023-04-30T11:08:39;96085.19;;;22.50;33.43
40946;BME280;55635;50.264;11.918;2023-04-30T11:11:20;96083.47;;;22.11;36.05
40946;BME280;55635;50.264;11.918;2023-04-30T11:14:04;96078.63;;;22.46;34.01
40946;BME280;55635;50.264;11.918;2023-04-30T11:16:48;96070.00;;;22.66;34.10
40946;BME280;55635;50.264;11.918;2023-04-30T11:19:31;96083.75;;;22.64;33.56
40946;BME280;55635;50.264;11.918;2023-04-30T11:22:16;96074.59;;;23.30;31.72
40946;BME280;55635;50.264;11.918;2023-04-30T11:27:49;96066.97;;;23.76;31.93
40946;BME280;55635;50.264;11.918;2023-04-30T11:30:31;96080.09;;;23.84;33.33
40946;BME280;55635;50.264;11.918;2023-04-30T11:33:13;96067.97;;;23.65;32.17
40946;BME280;55635;50.264;11.918;2023-04-30T11:35:56;96078.22;;;22.93;32.44
40946;BME280;55635;50.264;11.918;2023-04-30T11:38:37;96076.03;;;23.11;31.86
40946;BME280;55635;50.264;11.918;2023-04-30T11:41:24;96071.41;;;23.12;30.47
40946;BME280;55635;50.264;11.918;2023-04-30T11:44:27;96058.31;;;23.47;31.38
40946;BME280;55635;50.264;11.918;2023-04-30T11:47:08;96065.97;;;23.55;33.72
40946;BME280;55635;50.264;11.918;2023-04-30T11:50:20;96058.16;;;23.37;32.93
40946;BME280;55635;50.264;11.918;2023-04-30T11:53:09;96048.56;;;24.05;31.58
40946;BME280;55635;50.264;11.918;2023-04-30T11:55:50;96049.38;;;23.73;32.25
40946;BME280;55635;50.264;11.918;2023-04-30T11:58:36;96040.88;;;24.23;32.32
40946;BME280;55635;50.264;11.918;2023-04-30T12:01:21;96045.66;;;24.53;32.69
40946;BME280;55635;50.264;11.918;2023-04-30T12:04:07;96044.75;;;24.37;33.03
40946;BME280;55635;50.264;11.918;2023-04-30T12:06:52;96042.22;;;24.68;32.08
40946;BME280;55635;50.264;11.918;2023-04-30T12:09:54;96039.44;;;24.53;31.15
40946;BME280;55635;50.264;11.918;2023-04-30T12:12:36;96038.81;;;24.41;30.02
40946;BME280;55635;50.264;11.918;2023-04-30T12:15:23;96035.72;;;24.69;31.65
40946;BME280;55635;50.264;11.918;2023-04-30T12:18:12;96028.59;;;24.53;30.07
40946;BME280;55635;50.264;11.918;2023-04-30T12:20:54;96022.03;;;24.44;31.37
40946;BME280;55635;50.264;11.918;2023-04-30T12:23:36;96031.97;;;24.75;33.25
40946;BME280;55635;50.264;11.918;2023-04-30T12:26:18;96022.41;;;25.19;33.77
40946;BME280;55635;50.264;11.918;2023-04-30T12:28:59;96023.56;;;24.29;33.72
40946;BME280;55635;50.264;11.918;2023-04-30T12:31:43;96022.63;;;24.56;32.50
40946;BME280;55635;50.264;11.918;2023-04-30T12:34:26;96031.06;;;25.06;33.04
40946;BME280;55635;50.264;11.918;2023-04-30T12:37:07;96026.47;;;24.65;33.54
40946;BME280;55635;50.264;11.918;2023-04-30T12:39:48;96020.91;;;24.86;32.99
40946;BME280;55635;50.264;11.918;2023-04-30T12:42:34;96029.78;;;24.77;32.64
40946;BME280;55635;50.264;11.918;2023-04-30T12:45:51;96024.84;;;25.21;31.02
40946;BME280;55635;50.264;11.918;2023-04-30T12:48:44;96033.56;;;24.71;32.05
40946;BME280;55635;50.264;11.918;2023-04-30T12:51:25;96018.41;;;24.80;32.23
40946;BME280;55635;50.264;11.918;2023-04-30T12:54:07;96013.69;;;25.07;32.26
40946;BME280;55635;50.264;11.918;2023-04-30T12:57:04;96019.28;;;24.38;31.68
40946;BME280;55635;50.264;11.918;2023-04-30T12:59:57;96013.16;;;25.10;32.07
40946;BME280;55635;50.264;11.918;2023-04-30T13:02:39;96006.56;;;24.91;32.71
40946;BME280;55635;50.264;11.918;2023-04-30T13:05:20;95990.97;;;24.61;31.59
40946;BME280;55635;50.264;11.918;2023-04-30T13:08:02;96006.13;;;25.24;32.26
40946;BME280;55635;50.264;11.918;2023-04-30T13:10:46;95995.88;;;24.69;31.16
40946;BME280;55635;50.264;11.918;2023-04-30T13:13:28;95994.44;;;24.52;32.40
40946;BME280;55635;50.264;11.918;2023-04-30T13:16:08;95999.50;;;24.85;34.69
40946;BME280;55635;50.264;11.918;2023-04-30T13:18:49;95992.09;;;24.28;32.17
40946;BME280;55635;50.264;11.918;2023-04-30T13:21:30;95993.91;;;24.55;32.64
40946;BME280;55635;50.264;11.918;2023-04-30T13:24:12;95985.81;;;25.37;30.88
40946;BME280;55635;50.264;11.918;2023-04-30T13:26:53;95989.84;;;25.19;32.48
40946;BME280;55635;50.264;11.918;2023-04-30T13:29:34;95987.38;;;25.23;30.74
40946;BME280;55635;50.264;11.918;2023-04-30T13:32:15;95983.28;;;25.00;30.49
40946;BME280;55635;50.264;11.918;2023-04-30T13:34:56;95984.91;;;25.11;32.11
40946;BME280;55635;50.264;11.918;2023-04-30T13:37:38;95974.91;;;25.27;31.05
40946;BME280;55635;50.264;11.918;2023-04-30T13:40:19;95963.78;;;25.18;31.78
40946;BME280;55635;50.264;11.918;2023-04-30T13:43:00;95968.13;;;25.19;31.76
40946;BME280;55635;50.264;11.918;2023-04-30T13:45:42;95959.47;;;25.37;31.12
40946;BME280;55635;50.264;11.918;2023-04-30T13:48:25;95962.91;;;25.03;30.75
40946;BME280;55635;50.264;11.918;2023-04-30T13:51:06;95965.47;;;25.60;31.08
40946;BME280;55635;50.264;11.918;2023-04-30T13:53:48;95962.75;;;25.75;29.82
40946;BME280;55635;50.264;11.918;2023-04-30T13:56:28;95961.66;;;26.06;30.58
40946;BME280;55635;50.264;11.918;2023-04-30T13:59:10;95954.56;;;25.29;31.16
40946;BME280;55635;50.264;11.918;2023-04-30T14:01:51;95957.88;;;25.72;30.36
40946;BME280;55635;50.264;11.918;2023-04-30T14:04:32;95955.97;;;25.52;29.83
40946;BME280;55635;50.264;11.918;2023-04-30T14:07:13;95957.09;;;25.56;30.37
40946;BME280;55635;50.264;11.918;2023-04-30T14:09:55;95953.25;;;25.72;30.16
40946;BME280;55635;50.264;11.918;2023-04-30T14:12:35;95946.59;;;24.92;31.01
40946;BME280;55635;50.264;11.918;2023-04-30T14:15:17;95944.22;;;25.26;31.20
40946;BME280;55635;50.264;11.918;2023-04-30T14:17:58;95950.78;;;25.40;30.58
40946;BME280;55635;50.264;11.918;2023-04-30T14:20:43;95955.09;;;25.16;31.04
40946;BME280;55635;50.264;11.918;2023-04-30T14:23:26;95950.84;;;25.71;31.45
40946;BME280;55635;50.264;11.918;2023-04-30T14:26:14;95935.56;;;25.44;28.63
40946;BME280;55635;50.264;11.918;2023-04-30T14:28:56;95937.53;;;25.74;29.57
40946;BME280;55635;50.264;11.918;2023-04-30T14:31:37;95929.38;;;25.74;29.29